Tambon Khok Khian, Thailand

2:43 AM ICT on August 30, 2015 (GMT +0700)
Sultan Ismail Petra | | Change Station
CLOSE
Current Station
Airport
Location: Kota Bharu,
Elevation: 16 ft
Nearby Weather Stations

Elev 16 ft 6.17 °N, 102.29 °E | Updated 43 minutes ago

Thunderstorm
Thunderstorm
81 °F
Feels Like 87 °F
N
5
Wind Variable Wind from NNW

Today
High -- | Low -- °F
--% Chance of Precip.
Yesterday
High -- | Low -- °F
Precip. -- in
6:06 AM 6:21 PM
Full, 100% visible
Pressure 29.83 in
Visibility 3.7 miles
Clouds Few 1000 ft
Few 1700 ft
Scattered Clouds 2000 ft
Mostly Cloudy 22000 ft
Heat Index 87 °F
Dew Point 77 °F
Humidity 89%
Rainfall 0.00 in
Snow Depth Not available.
UV 0 out of 12
Pollen Not available.
Air Quality Not available.
Flu Activity Not available.
METAR WMKC 291900Z 34004KT 6000 TS FEW010 FEW017CB SCT020 BKN220 27/25 Q1010
Pressure 29.83 in
Visibility 3.7 miles
Clouds Few 1000 ft
Few 1700 ft
Scattered Clouds 2000 ft
Mostly Cloudy 22000 ft
Heat Index 87 °F
Dew Point 77 °F
Humidity 89%
Rainfall 0.00 in
Snow Depth Not available.
UV 0 out of 12
Pollen Not available.
Air Quality Not available.
Flu Activity Not available.
METAR WMKC 291900Z 34004KT 6000 TS FEW010 FEW017CB SCT020 BKN220 27/25 Q1010

10-Day Weather Forecast

×

Almanac

Astronomy

Aug. 30, 2015 Rise Set
Actual Time
Civil Twilight
Nautical Twilight
Astronomical Twilight
Moon
Length of Visible Light
Length of Day
Tomorrow will be .
, % of the Moon is Illuminated

Today's Extremes

Country Highs Country Lows

Community

WunderPhotos

Upload Photos

1,850,786 photos uploaded!

WunderBlogs® & News

Nearby

Air Quality

  Air Quality AQ Index Pollutant
Not available.

Snow Depth

Station Depth Elevation

Earthquake Activity

City Distance Mag. Time & Date
Minimum magnitude displayed is 2.5.

Coastal Water Temperatures

Place Temperature

Stations

Nearby Weather Stations

Station Location Temp. Windchill Dew Point Humidity Wind Precip. Elev Updated Type